De Tour Village, Michigan

12:44 PM EDT on August 25, 2016 (GMT -0400)
MARITIME | | Change Station

Elev 577 ft 45.40 °N, 85.40 °W | Updated 3 days ago

Partly Cloudy
Partly Cloudy
77 °F
Feels Like 77 °F
N
8
Wind Variable Wind from West
Gusts mph

Today
High -- | Low -- °F
--% Chance of Precip.
Yesterday
High -- | Low -- °F
Precip. -- in
Pressure 29.90 in
Visibility 10.0 miles
Clouds Scattered Clouds 1100 ft
Dew Point 62 °F
Humidity 60%
Rainfall in
Snow Depth Not available.
6:48 AM 8:25 PM
Last Quarter, 44% visible
METAR KDRM 251634Z AUTO 23004KT 10SM SCT011 23/20 A2990 RMK AO2 T02320198
Pressure 29.90 in
Visibility 10.0 miles
Clouds Scattered Clouds 1100 ft
Dew Point 62 °F
Humidity 60%
Rainfall in
Snow Depth Not available.
6:48 AM 8:25 PM
Last Quarter, 44% visible
METAR KDRM 251634Z AUTO 23004KT 10SM SCT011 23/20 A2990 RMK AO2 T02320198

10-Day Weather Forecast

Almanac

Astronomy

Aug. 25, 2016 Rise Set
Actual Time
Civil Twilight
Nautical Twilight
Astronomical Twilight
Moon
Length of Visible Light
Length of Day
Tomorrow will be .
, % of the Moon is Illuminated

Today's Extremes

State Highs State Lows

Community

WunderPhotos

Upload Photos

1,934,869 photos uploaded!

WunderBlog® & News

Nearby

Air Quality

  Air Quality AQ Index Pollutant
Not available.

Snow Depth

Station Depth Elevation

Earthquake Activity

City Distance Mag. Time & Date
Minimum magnitude displayed is 2.5.

Coastal Water Temperatures

Place Temperature

Stations

Nearby Weather Stations

Station Location Temp. Windchill Dew Point Humidity Wind Precip. Elev Updated Type
                   

Watches & Warnings

There are currently no watches in effect.